sensor_id;sensor_type;location;lat;lon;timestamp;P1;durP1;ratioP1;P2;durP2;ratioP2
68192;SDS011;55012;47.562;18.414;2024-02-15T00:01:18;46.13;;;20.73;;
68192;SDS011;55012;47.562;18.414;2024-02-15T00:03:44;40.25;;;19.73;;
68192;SDS011;55012;47.562;18.414;2024-02-15T00:06:10;42.42;;;19.60;;
68192;SDS011;55012;47.562;18.414;2024-02-15T00:08:36;39.72;;;19.27;;
68192;SDS011;55012;47.562;18.414;2024-02-15T00:11:01;36.97;;;18.60;;
68192;SDS011;55012;47.562;18.414;2024-02-15T00:13:27;32.92;;;15.98;;
68192;SDS011;55012;47.562;18.414;2024-02-15T00:15:53;41.53;;;20.65;;
68192;SDS011;55012;47.562;18.414;2024-02-15T00:18:18;43.35;;;20.83;;
68192;SDS011;55012;47.562;18.414;2024-02-15T00:20:43;43.03;;;21.15;;
68192;SDS011;55012;47.562;18.414;2024-02-15T00:23:09;58.22;;;27.08;;
68192;SDS011;55012;47.562;18.414;2024-02-15T00:25:34;54.42;;;27.10;;
68192;SDS011;55012;47.562;18.414;2024-02-15T00:28:00;55.78;;;27.25;;
68192;SDS011;55012;47.562;18.414;2024-02-15T00:30:27;49.70;;;23.88;;
68192;SDS011;55012;47.562;18.414;2024-02-15T00:32:53;37.38;;;18.45;;
68192;SDS011;55012;47.562;18.414;2024-02-15T00:35:18;43.30;;;21.00;;
68192;SDS011;55012;47.562;18.414;2024-02-15T00:37:44;46.38;;;23.08;;
68192;SDS011;55012;47.562;18.414;2024-02-15T00:40:10;44.15;;;22.73;;
68192;SDS011;55012;47.562;18.414;2024-02-15T00:42:36;39.55;;;19.88;;
68192;SDS011;55012;47.562;18.414;2024-02-15T00:45:01;35.90;;;18.05;;
68192;SDS011;55012;47.562;18.414;2024-02-15T00:47:27;33.17;;;17.30;;
68192;SDS011;55012;47.562;18.414;2024-02-15T00:49:53;34.65;;;16.20;;
68192;SDS011;55012;47.562;18.414;2024-02-15T00:52:19;33.92;;;16.42;;
68192;SDS011;55012;47.562;18.414;2024-02-15T00:54:45;35.28;;;17.17;;
68192;SDS011;55012;47.562;18.414;2024-02-15T00:57:13;34.55;;;17.48;;
68192;SDS011;55012;47.562;18.414;2024-02-15T00:59:38;33.08;;;16.33;;
68192;SDS011;55012;47.562;18.414;2024-02-15T01:02:03;33.30;;;15.90;;
68192;SDS011;55012;47.562;18.414;2024-02-15T01:04:30;32.42;;;15.48;;
68192;SDS011;55012;47.562;18.414;2024-02-15T01:06:56;31.65;;;14.63;;
68192;SDS011;55012;47.562;18.414;2024-02-15T01:09:21;29.60;;;14.05;;
68192;SDS011;55012;47.562;18.414;2024-02-15T01:11:47;26.88;;;13.20;;
68192;SDS011;55012;47.562;18.414;2024-02-15T01:14:13;27.15;;;13.65;;
68192;SDS011;55012;47.562;18.414;2024-02-15T01:16:40;26.85;;;13.00;;
68192;SDS011;55012;47.562;18.414;2024-02-15T01:19:06;26.95;;;13.23;;
68192;SDS011;55012;47.562;18.414;2024-02-15T01:21:31;23.85;;;12.68;;
68192;SDS011;55012;47.562;18.414;2024-02-15T01:23:58;26.90;;;12.85;;
68192;SDS011;55012;47.562;18.414;2024-02-15T01:26:26;25.10;;;12.18;;
68192;SDS011;55012;47.562;18.414;2024-02-15T01:28:52;24.45;;;12.20;;
68192;SDS011;55012;47.562;18.414;2024-02-15T01:31:17;23.92;;;11.77;;
68192;SDS011;55012;47.562;18.414;2024-02-15T01:33:43;22.83;;;12.13;;
68192;SDS011;55012;47.562;18.414;2024-02-15T01:36:13;25.27;;;12.50;;
68192;SDS011;55012;47.562;18.414;2024-02-15T01:38:40;26.42;;;12.25;;
68192;SDS011;55012;47.562;18.414;2024-02-15T01:41:06;28.88;;;14.13;;
68192;SDS011;55012;47.562;18.414;2024-02-15T01:43:32;25.92;;;12.23;;
68192;SDS011;55012;47.562;18.414;2024-02-15T01:45:57;27.90;;;12.82;;
68192;SDS011;55012;47.562;18.414;2024-02-15T01:48:25;23.25;;;12.02;;
68192;SDS011;55012;47.562;18.414;2024-02-15T01:50:50;25.83;;;12.52;;
68192;SDS011;55012;47.562;18.414;2024-02-15T01:53:16;24.63;;;12.88;;
68192;SDS011;55012;47.562;18.414;2024-02-15T01:55:42;20.33;;;11.40;;
68192;SDS011;55012;47.562;18.414;2024-02-15T01:58:08;31.65;;;14.50;;
68192;SDS011;55012;47.562;18.414;2024-02-15T02:00:33;25.00;;;12.10;;
68192;SDS011;55012;47.562;18.414;2024-02-15T02:03:01;28.85;;;12.73;;
68192;SDS011;55012;47.562;18.414;2024-02-15T02:05:28;22.88;;;11.85;;
68192;SDS011;55012;47.562;18.414;2024-02-15T02:07:55;26.05;;;13.45;;
68192;SDS011;55012;47.562;18.414;2024-02-15T02:10:24;26.70;;;12.30;;
68192;SDS011;55012;47.562;18.414;2024-02-15T02:12:51;24.35;;;11.48;;
68192;SDS011;55012;47.562;18.414;2024-02-15T02:15:17;22.70;;;12.05;;
68192;SDS011;55012;47.562;18.414;2024-02-15T02:17:42;21.10;;;11.57;;
68192;SDS011;55012;47.562;18.414;2024-02-15T02:20:07;24.55;;;12.70;;
68192;SDS011;55012;47.562;18.414;2024-02-15T02:22:35;26.95;;;13.13;;
68192;SDS011;55012;47.562;18.414;2024-02-15T02:25:07;28.25;;;13.95;;
68192;SDS011;55012;47.562;18.414;2024-02-15T02:27:34;31.30;;;15.75;;
68192;SDS011;55012;47.562;18.414;2024-02-15T02:30:02;37.75;;;18.80;;
68192;SDS011;55012;47.562;18.414;2024-02-15T02:32:31;43.90;;;18.80;;
68192;SDS011;55012;47.562;18.414;2024-02-15T02:34:58;39.33;;;16.75;;
68192;SDS011;55012;47.562;18.414;2024-02-15T02:37:24;40.35;;;16.98;;
68192;SDS011;55012;47.562;18.414;2024-02-15T02:39:50;30.75;;;14.98;;
68192;SDS011;55012;47.562;18.414;2024-02-15T02:42:15;28.63;;;13.85;;
68192;SDS011;55012;47.562;18.414;2024-02-15T02:44:41;30.38;;;14.73;;
68192;SDS011;55012;47.562;18.414;2024-02-15T02:47:06;31.65;;;14.90;;
68192;SDS011;55012;47.562;18.414;2024-02-15T02:49:32;35.45;;;15.70;;
68192;SDS011;55012;47.562;18.414;2024-02-15T02:52:00;31.75;;;15.35;;
68192;SDS011;55012;47.562;18.414;2024-02-15T02:54:25;34.65;;;16.10;;
68192;SDS011;55012;47.562;18.414;2024-02-15T02:56:50;36.53;;;17.50;;
68192;SDS011;55012;47.562;18.414;2024-02-15T02:59:16;38.72;;;16.98;;
68192;SDS011;55012;47.562;18.414;2024-02-15T03:01:41;36.08;;;16.38;;
68192;SDS011;55012;47.562;18.414;2024-02-15T03:04:07;41.60;;;18.33;;
68192;SDS011;55012;47.562;18.414;2024-02-15T03:06:33;30.50;;;15.10;;
68192;SDS011;55012;47.562;18.414;2024-02-15T03:08:58;27.27;;;14.00;;
68192;SDS011;55012;47.562;18.414;2024-02-15T03:11:24;27.50;;;13.77;;
68192;SDS011;55012;47.562;18.414;2024-02-15T03:13:49;26.33;;;13.98;;
68192;SDS011;55012;47.562;18.414;2024-02-15T03:16:14;25.80;;;13.60;;
68192;SDS011;55012;47.562;18.414;2024-02-15T03:18:41;23.42;;;13.40;;
68192;SDS011;55012;47.562;18.414;2024-02-15T03:21:08;21.65;;;11.77;;
68192;SDS011;55012;47.562;18.414;2024-02-15T03:23:35;23.65;;;12.15;;
68192;SDS011;55012;47.562;18.414;2024-02-15T03:26:02;27.83;;;13.02;;
68192;SDS011;55012;47.562;18.414;2024-02-15T03:28:28;23.83;;;11.80;;
68192;SDS011;55012;47.562;18.414;2024-02-15T03:30:54;24.17;;;12.48;;
68192;SDS011;55012;47.562;18.414;2024-02-15T03:33:20;21.40;;;11.15;;
68192;SDS011;55012;47.562;18.414;2024-02-15T03:35:51;21.80;;;11.60;;
68192;SDS011;55012;47.562;18.414;2024-02-15T03:38:16;19.45;;;11.35;;
68192;SDS011;55012;47.562;18.414;2024-02-15T03:40:42;21.98;;;11.77;;
68192;SDS011;55012;47.562;18.414;2024-02-15T03:43:07;24.52;;;11.75;;
68192;SDS011;55012;47.562;18.414;2024-02-15T03:45:33;24.08;;;12.48;;
68192;SDS011;55012;47.562;18.414;2024-02-15T03:47:59;25.73;;;12.57;;
68192;SDS011;55012;47.562;18.414;2024-02-15T03:50:24;26.02;;;12.75;;
68192;SDS011;55012;47.562;18.414;2024-02-15T03:52:50;26.65;;;12.73;;
68192;SDS011;55012;47.562;18.414;2024-02-15T03:55:15;25.50;;;12.90;;
68192;SDS011;55012;47.562;18.414;2024-02-15T03:57:41;23.77;;;12.73;;
68192;SDS011;55012;47.562;18.414;2024-02-15T04:00:08;24.02;;;13.23;;
68192;SDS011;55012;47.562;18.414;2024-02-15T04:02:36;25.70;;;13.15;;
68192;SDS011;55012;47.562;18.414;2024-02-15T04:05:02;23.67;;;12.77;;
68192;SDS011;55012;47.562;18.414;2024-02-15T04:07:30;24.73;;;12.82;;
68192;SDS011;55012;47.562;18.414;2024-02-15T04:09:55;32.03;;;14.35;;
68192;SDS011;55012;47.562;18.414;2024-02-15T04:12:21;29.33;;;13.95;;
68192;SDS011;55012;47.562;18.414;2024-02-15T04:14:47;31.13;;;14.25;;
68192;SDS011;55012;47.562;18.414;2024-02-15T04:17:14;27.15;;;13.85;;
68192;SDS011;55012;47.562;18.414;2024-02-15T04:19:43;29.10;;;13.05;;
68192;SDS011;55012;47.562;18.414;2024-02-15T04:22:09;23.42;;;11.75;;
68192;SDS011;55012;47.562;18.414;2024-02-15T04:24:35;21.08;;;10.95;;
68192;SDS011;55012;47.562;18.414;2024-02-15T04:27:05;23.33;;;11.48;;
68192;SDS011;55012;47.562;18.414;2024-02-15T04:29:37;22.92;;;11.27;;
68192;SDS011;55012;47.562;18.414;2024-02-15T04:32:05;19.85;;;10.82;;
68192;SDS011;55012;47.562;18.414;2024-02-15T04:34:34;21.40;;;11.20;;
68192;SDS011;55012;47.562;18.414;2024-02-15T04:37:00;21.65;;;11.45;;
68192;SDS011;55012;47.562;18.414;2024-02-15T04:39:26;25.88;;;12.50;;
68192;SDS011;55012;47.562;18.414;2024-02-15T04:41:55;23.35;;;12.10;;
68192;SDS011;55012;47.562;18.414;2024-02-15T04:44:20;24.13;;;12.05;;
68192;SDS011;55012;47.562;18.414;2024-02-15T04:46:46;24.15;;;11.95;;
68192;SDS011;55012;47.562;18.414;2024-02-15T04:49:12;24.52;;;13.25;;
68192;SDS011;55012;47.562;18.414;2024-02-15T04:51:39;26.20;;;13.90;;
68192;SDS011;55012;47.562;18.414;2024-02-15T04:54:06;23.77;;;13.45;;
68192;SDS011;55012;47.562;18.414;2024-02-15T04:56:32;25.52;;;13.68;;
68192;SDS011;55012;47.562;18.414;2024-02-15T04:58:58;28.42;;;14.60;;
68192;SDS011;55012;47.562;18.414;2024-02-15T05:01:23;32.00;;;18.38;;
68192;SDS011;55012;47.562;18.414;2024-02-15T05:03:49;32.97;;;18.10;;
68192;SDS011;55012;47.562;18.414;2024-02-15T05:06:14;31.85;;;17.80;;
68192;SDS011;55012;47.562;18.414;2024-02-15T05:08:40;29.33;;;16.20;;
68192;SDS011;55012;47.562;18.414;2024-02-15T05:11:09;29.92;;;15.38;;
68192;SDS011;55012;47.562;18.414;2024-02-15T05:13:40;28.95;;;15.18;;
68192;SDS011;55012;47.562;18.414;2024-02-15T05:16:06;27.65;;;15.55;;
68192;SDS011;55012;47.562;18.414;2024-02-15T05:18:31;28.70;;;14.52;;
68192;SDS011;55012;47.562;18.414;2024-02-15T05:20:59;28.73;;;14.35;;
68192;SDS011;55012;47.562;18.414;2024-02-15T05:23:26;29.05;;;15.20;;
68192;SDS011;55012;47.562;18.414;2024-02-15T05:25:51;30.98;;;15.50;;
68192;SDS011;55012;47.562;18.414;2024-02-15T05:28:19;27.92;;;14.90;;
68192;SDS011;55012;47.562;18.414;2024-02-15T05:30:45;27.83;;;14.32;;
68192;SDS011;55012;47.562;18.414;2024-02-15T05:33:11;28.90;;;13.52;;
68192;SDS011;55012;47.562;18.414;2024-02-15T05:35:36;28.83;;;14.68;;
68192;SDS011;55012;47.562;18.414;2024-02-15T05:38:04;30.88;;;15.25;;
68192;SDS011;55012;47.562;18.414;2024-02-15T05:40:31;34.85;;;16.08;;
68192;SDS011;55012;47.562;18.414;2024-02-15T05:42:57;37.53;;;17.27;;
68192;SDS011;55012;47.562;18.414;2024-02-15T05:47:54;32.00;;;16.38;;
68192;SDS011;55012;47.562;18.414;2024-02-15T05:50:19;34.45;;;17.40;;
68192;SDS011;55012;47.562;18.414;2024-02-15T05:52:46;34.35;;;16.92;;
68192;SDS011;55012;47.562;18.414;2024-02-15T05:55:12;36.30;;;17.55;;
68192;SDS011;55012;47.562;18.414;2024-02-15T05:57:41;33.17;;;16.95;;
68192;SDS011;55012;47.562;18.414;2024-02-15T06:00:08;35.38;;;16.42;;
68192;SDS011;55012;47.562;18.414;2024-02-15T06:02:34;32.17;;;15.70;;
68192;SDS011;55012;47.562;18.414;2024-02-15T06:04:59;32.10;;;14.27;;
68192;SDS011;55012;47.562;18.414;2024-02-15T06:07:28;36.40;;;15.85;;
68192;SDS011;55012;47.562;18.414;2024-02-15T06:09:54;35.70;;;15.75;;
68192;SDS011;55012;47.562;18.414;2024-02-15T06:12:19;33.92;;;15.80;;
68192;SDS011;55012;47.562;18.414;2024-02-15T06:14:45;30.48;;;15.63;;
68192;SDS011;55012;47.562;18.414;2024-02-15T06:17:11;29.85;;;15.20;;
68192;SDS011;55012;47.562;18.414;2024-02-15T06:19:36;36.53;;;17.17;;
68192;SDS011;55012;47.562;18.414;2024-02-15T06:22:02;38.80;;;18.58;;
68192;SDS011;55012;47.562;18.414;2024-02-15T06:24:29;42.70;;;21.02;;
68192;SDS011;55012;47.562;18.414;2024-02-15T06:26:54;43.28;;;20.00;;
68192;SDS011;55012;47.562;18.414;2024-02-15T06:29:24;44.95;;;20.02;;
68192;SDS011;55012;47.562;18.414;2024-02-15T06:32:11;51.03;;;22.02;;
68192;SDS011;55012;47.562;18.414;2024-02-15T06:34:55;46.58;;;21.58;;
68192;SDS011;55012;47.562;18.414;2024-02-15T06:37:39;50.70;;;23.10;;
68192;SDS011;55012;47.562;18.414;2024-02-15T06:40:23;47.88;;;22.67;;
68192;SDS011;55012;47.562;18.414;2024-02-15T06:42:49;48.05;;;21.05;;
68192;SDS011;55012;47.562;18.414;2024-02-15T06:45:14;52.25;;;26.23;;
68192;SDS011;55012;47.562;18.414;2024-02-15T06:47:41;53.28;;;26.60;;
68192;SDS011;55012;47.562;18.414;2024-02-15T06:50:10;54.20;;;24.63;;
68192;SDS011;55012;47.562;18.414;2024-02-15T06:52:37;49.15;;;23.05;;
68192;SDS011;55012;47.562;18.414;2024-02-15T06:55:03;48.97;;;23.15;;
68192;SDS011;55012;47.562;18.414;2024-02-15T06:57:30;40.13;;;20.02;;
68192;SDS011;55012;47.562;18.414;2024-02-15T06:59:56;42.33;;;18.45;;
68192;SDS011;55012;47.562;18.414;2024-02-15T07:02:21;38.38;;;17.70;;
68192;SDS011;55012;47.562;18.414;2024-02-15T07:04:48;36.42;;;17.75;;
68192;SDS011;55012;47.562;18.414;2024-02-15T07:07:14;35.83;;;18.10;;
68192;SDS011;55012;47.562;18.414;2024-02-15T07:09:39;47.00;;;21.42;;
68192;SDS011;55012;47.562;18.414;2024-02-15T07:12:05;43.42;;;20.42;;
68192;SDS011;55012;47.562;18.414;2024-02-15T07:14:30;38.55;;;19.65;;
68192;SDS011;55012;47.562;18.414;2024-02-15T07:16:56;34.85;;;17.75;;
68192;SDS011;55012;47.562;18.414;2024-02-15T07:19:24;42.83;;;19.95;;
68192;SDS011;55012;47.562;18.414;2024-02-15T07:21:51;42.65;;;20.92;;
68192;SDS011;55012;47.562;18.414;2024-02-15T07:24:16;43.85;;;21.05;;
68192;SDS011;55012;47.562;18.414;2024-02-15T07:26:41;45.80;;;21.73;;
68192;SDS011;55012;47.562;18.414;2024-02-15T07:29:07;52.63;;;23.30;;
68192;SDS011;55012;47.562;18.414;2024-02-15T07:31:33;56.83;;;24.30;;
68192;SDS011;55012;47.562;18.414;2024-02-15T07:33:58;59.17;;;26.25;;
68192;SDS011;55012;47.562;18.414;2024-02-15T07:36:24;58.85;;;27.48;;
68192;SDS011;55012;47.562;18.414;2024-02-15T07:38:50;63.45;;;27.33;;
68192;SDS011;55012;47.562;18.414;2024-02-15T07:41:22;45.38;;;22.13;;
68192;SDS011;55012;47.562;18.414;2024-02-15T07:43:49;48.72;;;22.92;;
68192;SDS011;55012;47.562;18.414;2024-02-15T07:46:15;54.55;;;25.15;;
68192;SDS011;55012;47.562;18.414;2024-02-15T07:48:41;49.80;;;25.15;;
68192;SDS011;55012;47.562;18.414;2024-02-15T07:51:14;48.38;;;23.88;;
68192;SDS011;55012;47.562;18.414;2024-02-15T07:53:41;39.85;;;18.23;;
68192;SDS011;55012;47.562;18.414;2024-02-15T07:56:08;40.33;;;20.40;;
68192;SDS011;55012;47.562;18.414;2024-02-15T07:58:37;40.35;;;19.67;;
68192;SDS011;55012;47.562;18.414;2024-02-15T08:01:04;37.65;;;18.48;;
68192;SDS011;55012;47.562;18.414;2024-02-15T08:03:30;32.22;;;15.68;;
68192;SDS011;55012;47.562;18.414;2024-02-15T08:05:56;28.00;;;14.00;;
68192;SDS011;55012;47.562;18.414;2024-02-15T08:08:21;29.35;;;13.57;;
68192;SDS011;55012;47.562;18.414;2024-02-15T08:10:46;25.48;;;12.65;;
68192;SDS011;55012;47.562;18.414;2024-02-15T08:13:13;25.60;;;13.50;;
68192;SDS011;55012;47.562;18.414;2024-02-15T08:15:40;28.15;;;13.20;;
68192;SDS011;55012;47.562;18.414;2024-02-15T08:18:05;27.40;;;12.80;;
68192;SDS011;55012;47.562;18.414;2024-02-15T08:20:34;36.90;;;13.25;;
68192;SDS011;55012;47.562;18.414;2024-02-15T08:22:59;25.17;;;13.23;;
68192;SDS011;55012;47.562;18.414;2024-02-15T08:25:25;29.42;;;13.98;;
68192;SDS011;55012;47.562;18.414;2024-02-15T08:27:50;28.27;;;13.80;;
68192;SDS011;55012;47.562;18.414;2024-02-15T08:30:16;27.23;;;14.02;;
68192;SDS011;55012;47.562;18.414;2024-02-15T08:32:42;27.10;;;13.50;;
68192;SDS011;55012;47.562;18.414;2024-02-15T08:35:08;25.48;;;12.63;;
68192;SDS011;55012;47.562;18.414;2024-02-15T08:37:35;23.58;;;12.10;;
68192;SDS011;55012;47.562;18.414;2024-02-15T08:40:10;26.90;;;13.27;;
68192;SDS011;55012;47.562;18.414;2024-02-15T08:42:43;21.13;;;10.23;;
68192;SDS011;55012;47.562;18.414;2024-02-15T08:45:09;25.38;;;13.95;;
68192;SDS011;55012;47.562;18.414;2024-02-15T08:47:36;21.65;;;11.07;;
68192;SDS011;55012;47.562;18.414;2024-02-15T08:50:03;15.45;;;8.40;;
68192;SDS011;55012;47.562;18.414;2024-02-15T08:52:29;13.40;;;7.47;;
68192;SDS011;55012;47.562;18.414;2024-02-15T08:54:54;13.13;;;7.97;;
68192;SDS011;55012;47.562;18.414;2024-02-15T08:57:20;14.20;;;7.72;;
68192;SDS011;55012;47.562;18.414;2024-02-15T08:59:46;14.25;;;7.60;;
68192;SDS011;55012;47.562;18.414;2024-02-15T09:02:12;11.23;;;6.53;;
68192;SDS011;55012;47.562;18.414;2024-02-15T09:04:39;12.77;;;7.05;;
68192;SDS011;55012;47.562;18.414;2024-02-15T09:07:06;13.95;;;8.02;;
68192;SDS011;55012;47.562;18.414;2024-02-15T09:09:32;19.35;;;9.48;;
68192;SDS011;55012;47.562;18.414;2024-02-15T09:12:00;14.73;;;7.38;;
68192;SDS011;55012;47.562;18.414;2024-02-15T09:14:30;18.77;;;9.40;;
68192;SDS011;55012;47.562;18.414;2024-02-15T09:17:02;16.08;;;7.57;;
68192;SDS011;55012;47.562;18.414;2024-02-15T09:19:35;12.15;;;6.68;;
68192;SDS011;55012;47.562;18.414;2024-02-15T09:22:01;15.45;;;8.30;;
68192;SDS011;55012;47.562;18.414;2024-02-15T09:24:30;11.13;;;6.95;;
68192;SDS011;55012;47.562;18.414;2024-02-15T09:26:57;13.10;;;8.13;;
68192;SDS011;55012;47.562;18.414;2024-02-15T09:29:23;17.67;;;9.40;;
68192;SDS011;55012;47.562;18.414;2024-02-15T09:31:49;15.48;;;8.95;;
68192;SDS011;55012;47.562;18.414;2024-02-15T09:34:15;18.48;;;10.50;;
68192;SDS011;55012;47.562;18.414;2024-02-15T09:36:40;23.02;;;10.85;;
68192;SDS011;55012;47.562;18.414;2024-02-15T09:39:05;19.45;;;9.93;;
68192;SDS011;55012;47.562;18.414;2024-02-15T09:41:31;18.25;;;10.48;;
68192;SDS011;55012;47.562;18.414;2024-02-15T09:43:58;19.85;;;10.25;;
68192;SDS011;55012;47.562;18.414;2024-02-15T09:46:24;21.02;;;9.80;;
68192;SDS011;55012;47.562;18.414;2024-02-15T09:48:51;26.63;;;11.43;;
68192;SDS011;55012;47.562;18.414;2024-02-15T09:51:23;32.25;;;12.77;;
68192;SDS011;55012;47.562;18.414;2024-02-15T09:53:51;26.63;;;12.98;;
68192;SDS011;55012;47.562;18.414;2024-02-15T09:56:16;25.58;;;12.10;;
68192;SDS011;55012;47.562;18.414;2024-02-15T09:58:43;27.85;;;12.70;;
68192;SDS011;55012;47.562;18.414;2024-02-15T10:01:09;21.65;;;11.65;;
68192;SDS011;55012;47.562;18.414;2024-02-15T10:03:38;25.25;;;13.52;;
68192;SDS011;55012;47.562;18.414;2024-02-15T10:06:05;27.00;;;12.40;;
68192;SDS011;55012;47.562;18.414;2024-02-15T10:08:31;23.50;;;12.38;;
68192;SDS011;55012;47.562;18.414;2024-02-15T10:11:08;26.25;;;12.25;;
68192;SDS011;55012;47.562;18.414;2024-02-15T10:13:35;22.30;;;12.25;;
68192;SDS011;55012;47.562;18.414;2024-02-15T10:16:13;24.30;;;12.05;;
68192;SDS011;55012;47.562;18.414;2024-02-15T10:18:40;21.30;;;12.00;;
68192;SDS011;55012;47.562;18.414;2024-02-15T10:21:05;19.77;;;11.95;;
68192;SDS011;55012;47.562;18.414;2024-02-15T10:23:30;21.33;;;11.10;;
68192;SDS011;55012;47.562;18.414;2024-02-15T10:25:56;24.52;;;11.48;;
68192;SDS011;55012;47.562;18.414;2024-02-15T10:28:23;23.05;;;10.70;;
68192;SDS011;55012;47.562;18.414;2024-02-15T10:30:49;18.98;;;9.60;;
68192;SDS011;55012;47.562;18.414;2024-02-15T10:33:18;19.20;;;11.10;;
68192;SDS011;55012;47.562;18.414;2024-02-15T10:35:45;20.48;;;10.55;;
68192;SDS011;55012;47.562;18.414;2024-02-15T10:38:11;23.67;;;11.52;;
68192;SDS011;55012;47.562;18.414;2024-02-15T10:40:38;17.17;;;9.20;;
68192;SDS011;55012;47.562;18.414;2024-02-15T10:43:07;14.77;;;8.80;;
68192;SDS011;55012;47.562;18.414;2024-02-15T10:45:35;15.73;;;8.50;;
68192;SDS011;55012;47.562;18.414;2024-02-15T10:48:02;12.02;;;6.88;;
68192;SDS011;55012;47.562;18.414;2024-02-15T10:50:30;9.68;;;6.20;;
68192;SDS011;55012;47.562;18.414;2024-02-15T10:52:56;15.98;;;8.38;;
68192;SDS011;55012;47.562;18.414;2024-02-15T10:55:44;28.73;;;13.15;;
68192;SDS011;55012;47.562;18.414;2024-02-15T10:58:19;18.65;;;10.95;;
68192;SDS011;55012;47.562;18.414;2024-02-15T11:00:46;15.82;;;9.68;;
68192;SDS011;55012;47.562;18.414;2024-02-15T11:03:14;20.48;;;10.73;;
68192;SDS011;55012;47.562;18.414;2024-02-15T11:05:49;21.75;;;9.30;;
68192;SDS011;55012;47.562;18.414;2024-02-15T11:08:16;17.08;;;8.98;;
68192;SDS011;55012;47.562;18.414;2024-02-15T11:10:42;22.23;;;11.23;;
68192;SDS011;55012;47.562;18.414;2024-02-15T11:13:08;19.85;;;10.68;;
68192;SDS011;55012;47.562;18.414;2024-02-15T11:18:00;17.85;;;11.25;;
68192;SDS011;55012;47.562;18.414;2024-02-15T11:22:58;20.63;;;11.70;;
68192;SDS011;55012;47.562;18.414;2024-02-15T11:25:33;20.60;;;11.07;;
68192;SDS011;55012;47.562;18.414;2024-02-15T11:30:52;16.13;;;10.02;;
68192;SDS011;55012;47.562;18.414;2024-02-15T11:33:28;17.02;;;10.93;;
68192;SDS011;55012;47.562;18.414;2024-02-15T11:36:15;20.95;;;11.60;;
68192;SDS011;55012;47.562;18.414;2024-02-15T11:38:41;27.10;;;13.98;;
68192;SDS011;55012;47.562;18.414;2024-02-15T11:41:10;18.17;;;10.43;;
68192;SDS011;55012;47.562;18.414;2024-02-15T11:46:13;17.02;;;10.20;;
68192;SDS011;55012;47.562;18.414;2024-02-15T11:48:45;16.75;;;10.00;;
68192;SDS011;55012;47.562;18.414;2024-02-15T11:51:24;15.75;;;9.25;;
68192;SDS011;55012;47.562;18.414;2024-02-15T11:54:03;13.50;;;8.10;;
68192;SDS011;55012;47.562;18.414;2024-02-15T11:56:32;17.30;;;9.32;;
68192;SDS011;55012;47.562;18.414;2024-02-15T11:59:15;14.70;;;9.48;;
68192;SDS011;55012;47.562;18.414;2024-02-15T12:01:55;17.85;;;10.18;;
68192;SDS011;55012;47.562;18.414;2024-02-15T12:04:40;17.35;;;10.07;;
68192;SDS011;55012;47.562;18.414;2024-02-15T12:07:24;19.25;;;11.88;;
68192;SDS011;55012;47.562;18.414;2024-02-15T12:10:14;18.55;;;11.75;;
68192;SDS011;55012;47.562;18.414;2024-02-15T12:12:59;17.17;;;10.05;;
68192;SDS011;55012;47.562;18.414;2024-02-15T12:15:55;17.25;;;10.55;;
68192;SDS011;55012;47.562;18.414;2024-02-15T12:18:40;18.67;;;9.98;;
68192;SDS011;55012;47.562;18.414;2024-02-15T12:21:09;17.30;;;9.45;;
68192;SDS011;55012;47.562;18.414;2024-02-15T12:23:38;15.95;;;10.10;;
68192;SDS011;55012;47.562;18.414;2024-02-15T12:26:03;17.00;;;10.23;;
68192;SDS011;55012;47.562;18.414;2024-02-15T12:28:32;15.27;;;9.75;;
68192;SDS011;55012;47.562;18.414;2024-02-15T12:31:00;14.57;;;9.20;;
68192;SDS011;55012;47.562;18.414;2024-02-15T12:33:26;16.25;;;8.85;;
68192;SDS011;55012;47.562;18.414;2024-02-15T12:36:02;13.98;;;8.70;;
68192;SDS011;55012;47.562;18.414;2024-02-15T12:38:33;14.68;;;8.60;;
68192;SDS011;55012;47.562;18.414;2024-02-15T12:41:02;14.00;;;8.80;;
68192;SDS011;55012;47.562;18.414;2024-02-15T12:43:28;16.08;;;9.73;;
68192;SDS011;55012;47.562;18.414;2024-02-15T12:45:54;16.13;;;9.77;;
68192;SDS011;55012;47.562;18.414;2024-02-15T12:48:21;16.25;;;10.18;;
68192;SDS011;55012;47.562;18.414;2024-02-15T12:50:47;18.75;;;10.70;;
68192;SDS011;55012;47.562;18.414;2024-02-15T12:53:13;17.25;;;10.90;;
68192;SDS011;55012;47.562;18.414;2024-02-15T12:55:46;17.58;;;10.55;;
68192;SDS011;55012;47.562;18.414;2024-02-15T12:58:19;19.38;;;10.65;;
68192;SDS011;55012;47.562;18.414;2024-02-15T13:00:45;14.85;;;9.93;;
68192;SDS011;55012;47.562;18.414;2024-02-15T13:03:11;17.63;;;9.98;;
68192;SDS011;55012;47.562;18.414;2024-02-15T13:05:39;17.55;;;10.85;;
68192;SDS011;55012;47.562;18.414;2024-02-15T13:08:05;21.73;;;10.77;;
68192;SDS011;55012;47.562;18.414;2024-02-15T13:10:34;19.83;;;11.25;;
68192;SDS011;55012;47.562;18.414;2024-02-15T13:13:00;19.95;;;12.15;;
68192;SDS011;55012;47.562;18.414;2024-02-15T13:15:26;19.92;;;11.98;;
68192;SDS011;55012;47.562;18.414;2024-02-15T13:17:52;19.40;;;11.63;;
68192;SDS011;55012;47.562;18.414;2024-02-15T13:20:22;19.38;;;12.52;;
68192;SDS011;55012;47.562;18.414;2024-02-15T13:22:58;21.95;;;12.82;;
68192;SDS011;55012;47.562;18.414;2024-02-15T13:25:27;22.33;;;14.10;;
68192;SDS011;55012;47.562;18.414;2024-02-15T13:27:56;22.45;;;13.63;;
68192;SDS011;55012;47.562;18.414;2024-02-15T13:30:24;22.48;;;14.10;;
68192;SDS011;55012;47.562;18.414;2024-02-15T13:32:52;25.05;;;14.82;;
68192;SDS011;55012;47.562;18.414;2024-02-15T13:35:21;26.83;;;14.73;;
68192;SDS011;55012;47.562;18.414;2024-02-15T13:37:52;24.05;;;14.57;;
68192;SDS011;55012;47.562;18.414;2024-02-15T13:40:19;24.02;;;14.63;;
68192;SDS011;55012;47.562;18.414;2024-02-15T13:42:48;27.48;;;15.25;;
68192;SDS011;55012;47.562;18.414;2024-02-15T13:45:18;27.27;;;15.40;;
68192;SDS011;55012;47.562;18.414;2024-02-15T13:47:52;24.05;;;15.23;;
68192;SDS011;55012;47.562;18.414;2024-02-15T13:50:20;26.00;;;16.10;;
68192;SDS011;55012;47.562;18.414;2024-02-15T13:52:46;29.88;;;16.17;;
68192;SDS011;55012;47.562;18.414;2024-02-15T13:57:42;28.85;;;17.02;;
68192;SDS011;55012;47.562;18.414;2024-02-15T14:00:11;27.67;;;16.38;;
68192;SDS011;55012;47.562;18.414;2024-02-15T14:02:49;29.40;;;16.60;;
68192;SDS011;55012;47.562;18.414;2024-02-15T14:05:16;26.15;;;16.10;;
68192;SDS011;55012;47.562;18.414;2024-02-15T14:07:46;26.95;;;16.60;;
68192;SDS011;55012;47.562;18.414;2024-02-15T14:10:12;27.15;;;16.08;;
68192;SDS011;55012;47.562;18.414;2024-02-15T14:12:38;28.02;;;16.55;;
68192;SDS011;55012;47.562;18.414;2024-02-15T14:15:04;29.80;;;16.77;;
68192;SDS011;55012;47.562;18.414;2024-02-15T14:17:31;34.45;;;17.25;;
68192;SDS011;55012;47.562;18.414;2024-02-15T14:19:56;30.67;;;17.23;;
68192;SDS011;55012;47.562;18.414;2024-02-15T14:22:22;31.35;;;17.88;;
68192;SDS011;55012;47.562;18.414;2024-02-15T14:24:49;31.83;;;18.85;;
68192;SDS011;55012;47.562;18.414;2024-02-15T14:27:14;37.45;;;19.15;;
68192;SDS011;55012;47.562;18.414;2024-02-15T14:29:40;28.48;;;17.88;;